createdAt,value
2023-05-10T00:00:35.949Z,7.05
2023-05-10T00:03:37.807Z,7.40
2023-05-10T00:06:39.727Z,7.07
2023-05-10T00:09:44.466Z,6.50
2023-05-10T00:12:46.294Z,7.50
2023-05-10T00:15:48.260Z,7.78
2023-05-10T00:18:50.108Z,9.95
2023-05-10T00:21:51.868Z,9.48
2023-05-10T00:24:57.655Z,8.40
2023-05-10T00:28:03.125Z,7.03
2023-05-10T00:31:05.043Z,7.75
2023-05-10T00:34:10.570Z,7.85
2023-05-10T00:37:12.526Z,8.73
2023-05-10T00:40:15.007Z,8.23
2023-05-10T00:43:20.797Z,8.70
2023-05-10T00:46:23.085Z,8.73
2023-05-10T00:49:24.905Z,9.75
2023-05-10T00:52:27.227Z,9.35
2023-05-10T00:55:29.105Z,8.50
2023-05-10T00:58:35.746Z,7.60
2023-05-10T01:01:37.789Z,7.78
2023-05-10T01:04:39.861Z,6.72
2023-05-10T01:07:42.359Z,8.75
2023-05-10T01:10:44.242Z,8.77
2023-05-10T01:13:51.660Z,7.10
2023-05-10T01:16:53.509Z,9.43
2023-05-10T01:19:55.299Z,7.95
2023-05-10T01:23:49.619Z,7.75
2023-05-10T01:27:21.889Z,8.43
2023-05-10T01:31:06.187Z,7.77
2023-05-10T01:34:14.305Z,8.18
2023-05-10T01:37:19.782Z,8.20
2023-05-10T01:40:36.566Z,9.68
2023-05-10T01:43:48.683Z,7.53
2023-05-10T01:46:56.459Z,10.40
2023-05-10T01:49:58.373Z,9.23
2023-05-10T01:53:00.555Z,9.82
2023-05-10T01:56:06.701Z,8.63
2023-05-10T01:59:12.852Z,9.23
2023-05-10T02:02:14.675Z,8.83
2023-05-10T02:05:16.798Z,9.05
2023-05-10T02:08:18.986Z,9.68
2023-05-10T02:11:25.253Z,9.55
2023-05-10T02:14:31.687Z,10.33
2023-05-10T02:17:33.713Z,8.15
2023-05-10T02:20:35.791Z,9.13
2023-05-10T02:23:37.835Z,9.65
2023-05-10T02:26:39.702Z,10.93
2023-05-10T02:29:45.718Z,9.83
2023-05-10T02:32:49.575Z,9.20
2023-05-10T02:35:51.833Z,11.13
2023-05-10T02:38:54.110Z,9.82
2023-05-10T02:41:59.695Z,10.57
2023-05-10T02:45:02.534Z,10.20
2023-05-10T02:48:04.710Z,9.77
2023-05-10T02:51:07.029Z,9.77
2023-05-10T02:54:13.283Z,10.00
2023-05-10T02:57:21.800Z,9.70
2023-05-10T03:00:26.492Z,7.85
2023-05-10T03:03:28.292Z,9.48
2023-05-10T03:06:30.146Z,10.32
2023-05-10T03:09:32.654Z,9.20
2023-05-10T03:12:54.760Z,8.50
2023-05-10T03:16:10.301Z,8.73
2023-05-10T03:19:34.630Z,9.48
2023-05-10T03:22:39.440Z,7.57
2023-05-10T03:25:44.863Z,10.10
2023-05-10T03:28:50.282Z,7.47
2023-05-10T03:31:52.131Z,8.32
2023-05-10T03:34:54.067Z,9.40
2023-05-10T03:37:56.056Z,9.03
2023-05-10T03:40:57.917Z,8.57
2023-05-10T03:44:02.598Z,7.93
2023-05-10T03:47:04.577Z,8.10
2023-05-10T03:50:10.901Z,8.67
2023-05-10T03:53:13.563Z,9.30
2023-05-10T03:56:15.393Z,9.95
2023-05-10T03:59:20.302Z,10.13
2023-05-10T04:02:22.267Z,8.40
2023-05-10T04:05:24.138Z,8.67
2023-05-10T04:08:25.973Z,7.57
2023-05-10T04:11:30.619Z,9.82
2023-05-10T04:14:32.501Z,8.10
2023-05-10T04:17:38.018Z,8.53
2023-05-10T04:20:39.875Z,9.03
2023-05-10T04:23:41.778Z,8.98
2023-05-10T04:26:46.422Z,8.80
2023-05-10T04:29:52.071Z,9.20
2023-05-10T04:32:53.953Z,8.83
2023-05-10T04:35:55.937Z,8.93
2023-05-10T04:38:57.770Z,8.35
2023-05-10T04:41:59.613Z,8.10
2023-05-10T04:45:05.150Z,8.70
2023-05-10T04:48:10.626Z,8.00
2023-05-10T04:51:12.559Z,11.17
2023-05-10T04:54:14.423Z,7.93
2023-05-10T04:57:19.974Z,9.13
2023-05-10T05:00:22.124Z,8.50
2023-05-10T05:03:24.116Z,7.80
2023-05-10T05:06:26.417Z,9.70
2023-05-10T05:09:28.301Z,9.52
2023-05-10T05:12:30.228Z,8.38
2023-05-10T05:15:32.039Z,8.40
2023-05-10T05:18:34.019Z,8.90
2023-05-10T05:21:35.960Z,8.23
2023-05-10T05:24:40.588Z,8.88
2023-05-10T05:27:42.696Z,8.05
2023-05-10T05:30:44.537Z,9.55
2023-05-10T05:33:46.842Z,8.03
2023-05-10T05:36:49.074Z,6.83
2023-05-10T05:39:51.165Z,8.35
2023-05-10T05:42:53.141Z,9.85
2023-05-10T05:45:55.354Z,9.63
2023-05-10T05:48:57.392Z,8.80
2023-05-10T05:52:03.448Z,7.70
2023-05-10T05:55:06.044Z,8.23
2023-05-10T05:58:08.083Z,7.65
2023-05-10T06:01:10.162Z,8.23
2023-05-10T06:04:12.110Z,7.97
2023-05-10T06:07:14.020Z,8.93
2023-05-10T06:10:16.057Z,8.20
2023-05-10T06:13:17.899Z,8.05
2023-05-10T06:16:19.892Z,7.38
2023-05-10T06:19:22.021Z,7.70
2023-05-10T06:22:24.029Z,8.63
2023-05-10T06:25:25.978Z,7.25
2023-05-10T06:28:27.958Z,7.45
2023-05-10T06:31:29.877Z,6.82
2023-05-10T06:34:31.889Z,8.33
2023-05-10T06:37:34.144Z,9.33
2023-05-10T06:40:37.156Z,7.20
2023-05-10T06:43:42.458Z,7.38
2023-05-10T06:46:44.786Z,6.50
2023-05-10T06:49:46.795Z,7.03
2023-05-10T06:52:49.537Z,6.50
2023-05-10T06:55:52.520Z,6.55
2023-05-10T06:58:54.888Z,6.15
2023-05-10T07:01:56.890Z,6.53
2023-05-10T07:05:01.654Z,6.30
2023-05-10T07:08:05.061Z,5.40
2023-05-10T07:11:08.622Z,5.80
2023-05-10T07:14:10.895Z,7.90
2023-05-10T07:17:12.907Z,6.30
2023-05-10T07:20:14.973Z,6.17
2023-05-10T07:23:18.919Z,7.00
2023-05-10T07:26:20.787Z,6.18
2023-05-10T07:29:27.187Z,6.03
2023-05-10T07:32:29.376Z,6.07
2023-05-10T07:35:31.705Z,5.60
2023-05-10T07:38:33.586Z,7.20
2023-05-10T07:41:35.979Z,6.82
2023-05-10T07:44:42.070Z,6.05
2023-05-10T07:47:44.060Z,5.60
2023-05-10T07:50:46.131Z,7.20
2023-05-10T07:53:47.965Z,6.37
2023-05-10T07:56:49.835Z,5.50
2023-05-10T07:59:51.743Z,5.43
2023-05-10T08:02:54.218Z,5.50
2023-05-10T08:05:56.273Z,5.43
2023-05-10T08:08:58.157Z,5.73
2023-05-10T08:12:01.278Z,5.30
2023-05-10T08:15:06.605Z,6.53
2023-05-10T08:18:08.452Z,6.10
2023-05-10T08:21:12.527Z,6.43
2023-05-10T08:24:14.587Z,5.73
2023-05-10T08:27:16.593Z,5.20
2023-05-10T08:30:21.609Z,6.50
2023-05-10T08:33:23.684Z,5.22
2023-05-10T08:36:25.894Z,4.72
2023-05-10T08:39:30.628Z,5.63
2023-05-10T08:42:33.307Z,6.45
2023-05-10T08:45:40.516Z,6.05
2023-05-10T08:48:42.391Z,7.50
2023-05-10T08:51:46.157Z,4.68
2023-05-10T08:54:47.996Z,5.03
2023-05-10T08:57:49.993Z,5.22
2023-05-10T09:00:57.814Z,5.65
2023-05-10T09:03:59.760Z,5.20
2023-05-10T09:07:02.342Z,5.18
2023-05-10T09:10:05.346Z,5.23
2023-05-10T09:13:07.341Z,5.22
2023-05-10T09:16:20.380Z,6.28
2023-05-10T09:19:24.122Z,5.70
2023-05-10T09:22:26.192Z,4.68
2023-05-10T09:25:28.134Z,5.47
2023-05-10T09:28:33.666Z,5.88
2023-05-10T09:31:56.043Z,6.15
2023-05-10T09:34:58.470Z,7.15
2023-05-10T09:38:05.411Z,7.50
2023-05-10T09:41:33.827Z,5.87
2023-05-10T09:44:36.184Z,5.13
2023-05-10T09:47:38.484Z,4.85
2023-05-10T09:50:41.483Z,6.43
2023-05-10T09:53:43.796Z,5.68
2023-05-10T09:56:45.851Z,6.53
2023-05-10T09:59:47.837Z,7.75
2023-05-10T10:02:55.527Z,6.03
2023-05-10T10:05:57.715Z,4.80
2023-05-10T10:08:59.699Z,5.43
2023-05-10T10:12:02.594Z,5.73
2023-05-10T10:15:05.627Z,6.30
2023-05-10T10:18:07.698Z,6.07
2023-05-10T10:21:10.044Z,5.93
2023-05-10T10:24:12.447Z,6.50
2023-05-10T10:27:14.404Z,5.67
2023-05-10T10:30:34.625Z,5.90
2023-05-10T10:34:01.969Z,7.25
2023-05-10T10:37:07.849Z,5.60
2023-05-10T10:40:26.567Z,5.90
2023-05-10T10:43:29.028Z,5.10
2023-05-10T10:46:30.824Z,6.38
2023-05-10T10:49:42.827Z,5.20
2023-05-10T10:52:45.033Z,4.95
2023-05-10T10:55:49.985Z,5.70
2023-05-10T10:58:55.036Z,6.17
2023-05-10T11:01:57.034Z,5.40
2023-05-10T11:04:58.894Z,4.50
2023-05-10T11:08:01.237Z,5.13
2023-05-10T11:11:04.769Z,4.78
2023-05-10T11:14:07.771Z,5.03
2023-05-10T11:17:28.290Z,4.97
2023-05-10T11:20:34.607Z,4.95
2023-05-10T11:23:48.833Z,4.28
2023-05-10T11:26:52.375Z,5.15
2023-05-10T11:29:54.253Z,4.40
2023-05-10T11:32:56.300Z,6.20
2023-05-10T11:35:58.238Z,3.83
2023-05-10T11:39:00.239Z,5.00
2023-05-10T11:42:02.356Z,4.35
2023-05-10T11:45:04.434Z,4.13
2023-05-10T11:48:06.353Z,5.18
2023-05-10T11:51:11.836Z,5.13
2023-05-10T11:54:13.918Z,4.05
2023-05-10T11:57:16.141Z,4.53
2023-05-10T12:00:18.254Z,5.87
2023-05-10T12:03:20.616Z,4.13
2023-05-10T12:06:22.559Z,5.28
2023-05-10T12:12:39.981Z,4.78
2023-05-10T12:15:42.253Z,4.07
2023-05-10T12:18:44.233Z,5.40
2023-05-10T12:21:46.272Z,4.40
2023-05-10T12:24:48.049Z,4.18
2023-05-10T12:27:59.673Z,5.13
2023-05-10T12:31:02.232Z,5.40
2023-05-10T12:34:04.150Z,4.20
2023-05-10T12:37:06.035Z,4.20
2023-05-10T12:40:09.251Z,4.00
2023-05-10T12:43:11.358Z,5.13
2023-05-10T12:46:15.167Z,4.30
2023-05-10T12:49:17.947Z,4.25
2023-05-10T12:52:19.894Z,4.20
2023-05-10T12:55:21.695Z,3.72
2023-05-10T12:58:34.906Z,5.50
2023-05-10T13:01:38.083Z,3.47
2023-05-10T13:04:40.990Z,4.45
2023-05-10T13:07:45.003Z,4.53
2023-05-10T13:10:46.843Z,3.92
2023-05-10T13:13:48.803Z,4.50
2023-05-10T13:16:50.673Z,5.47
2023-05-10T13:19:52.524Z,3.67
2023-05-10T13:22:54.518Z,3.95
2023-05-10T13:25:56.336Z,4.22
2023-05-10T13:28:58.178Z,4.25
2023-05-10T13:32:00.357Z,4.23
2023-05-10T13:35:04.308Z,4.10
2023-05-10T13:38:09.101Z,5.78
2023-05-10T13:41:11.724Z,3.75
2023-05-10T13:44:14.565Z,3.97
2023-05-10T13:47:16.381Z,5.10
2023-05-10T13:50:19.203Z,4.55
2023-05-10T13:53:22.325Z,4.20
2023-05-10T13:56:24.123Z,4.70
2023-05-10T13:59:25.919Z,4.97
2023-05-10T14:02:28.754Z,4.17
2023-05-10T14:05:30.635Z,4.72
2023-05-10T14:08:36.272Z,4.65
2023-05-10T14:11:38.126Z,4.18
2023-05-10T14:14:40.216Z,5.65
2023-05-10T14:17:42.161Z,5.43
2023-05-10T14:20:44.070Z,4.97
2023-05-10T14:23:45.850Z,5.05
2023-05-10T14:26:47.726Z,4.63
2023-05-10T14:29:49.569Z,4.32
2023-05-10T14:32:51.356Z,3.53
2023-05-10T14:35:53.432Z,4.93
2023-05-10T14:38:55.320Z,4.57
2023-05-10T14:41:57.595Z,4.00
2023-05-10T14:44:59.518Z,3.83
2023-05-10T14:48:01.602Z,4.30
2023-05-10T14:51:05.023Z,4.85
2023-05-10T14:54:06.911Z,5.50
2023-05-10T14:57:08.763Z,3.65
2023-05-10T15:00:11.598Z,6.35
2023-05-10T15:03:13.912Z,4.13
2023-05-10T15:06:17.210Z,5.55
2023-05-10T15:09:19.122Z,5.05
2023-05-10T15:12:21.063Z,5.13
2023-05-10T15:15:22.849Z,4.88
2023-05-10T15:18:27.605Z,3.90
2023-05-10T15:21:29.463Z,8.55
2023-05-10T15:24:38.410Z,5.10
2023-05-10T15:27:40.148Z,4.65
2023-05-10T15:30:42.018Z,4.57
2023-05-10T15:33:43.806Z,4.60
2023-05-10T15:36:46.539Z,4.07
2023-05-10T15:39:52.473Z,4.10
2023-05-10T15:42:54.275Z,4.45
2023-05-10T15:45:56.063Z,4.40
2023-05-10T15:49:01.280Z,5.20
2023-05-10T15:52:03.269Z,5.50
2023-05-10T15:55:16.634Z,4.28
2023-05-10T15:58:19.411Z,3.63
2023-05-10T16:01:21.569Z,3.83
2023-05-10T16:04:23.753Z,4.23
2023-05-10T16:07:25.812Z,5.35
2023-05-10T16:10:28.104Z,4.22
2023-05-10T16:13:30.166Z,4.72
2023-05-10T16:16:32.528Z,4.20
2023-05-10T16:19:34.364Z,3.83
2023-05-10T16:22:36.512Z,5.03
2023-05-10T16:25:41.861Z,5.40
2023-05-10T16:28:43.728Z,4.07
2023-05-10T16:31:45.535Z,4.60
2023-05-10T16:34:47.473Z,5.97
2023-05-10T16:37:49.656Z,6.97
2023-05-10T16:40:55.050Z,5.65
2023-05-10T16:43:57.769Z,4.72
2023-05-10T16:46:59.576Z,4.07
2023-05-10T16:50:04.546Z,5.47
2023-05-10T16:53:06.884Z,4.72
2023-05-10T16:56:08.942Z,4.63
2023-05-10T16:59:10.876Z,4.43
2023-05-10T17:02:13.136Z,9.57
2023-05-10T17:05:15.317Z,4.50
2023-05-10T17:08:17.372Z,5.78
2023-05-10T17:11:21.203Z,4.43
2023-05-10T17:14:26.006Z,5.90
2023-05-10T17:17:27.880Z,6.13
2023-05-10T17:20:29.690Z,4.83
2023-05-10T17:23:31.505Z,5.40
2023-05-10T17:26:38.197Z,4.13
2023-05-10T17:29:40.082Z,4.65
2023-05-10T17:32:42.133Z,4.07
2023-05-10T17:35:45.409Z,4.50
2023-05-10T17:38:47.221Z,4.60
2023-05-10T17:41:52.252Z,5.85
2023-05-10T17:44:57.731Z,6.72
2023-05-10T17:47:59.705Z,5.18
2023-05-10T17:51:01.713Z,5.90
2023-05-10T17:54:03.759Z,4.28
2023-05-10T17:57:05.558Z,4.05
2023-05-10T18:00:09.570Z,4.18
2023-05-10T18:03:11.637Z,5.03
2023-05-10T18:06:13.683Z,5.73
2023-05-10T18:09:16.340Z,6.30
2023-05-10T18:12:21.235Z,5.20
2023-05-10T18:15:23.183Z,4.90
2023-05-10T18:18:25.531Z,5.00
2023-05-10T18:21:27.807Z,5.00
2023-05-10T18:24:38.894Z,3.83
2023-05-10T18:27:44.307Z,3.78
2023-05-10T18:30:46.239Z,4.38
2023-05-10T18:33:48.047Z,5.35
2023-05-10T18:36:50.005Z,4.33
2023-05-10T18:39:51.950Z,4.80
2023-05-10T18:42:54.046Z,4.47
2023-05-10T18:45:59.465Z,4.55
2023-05-10T18:49:02.909Z,4.40
2023-05-10T18:52:04.688Z,6.33
2023-05-10T18:55:07.363Z,5.38
2023-05-10T18:58:09.295Z,4.22
2023-05-10T19:01:14.388Z,5.05
2023-05-10T19:04:16.395Z,4.10
2023-05-10T19:07:18.204Z,5.00
2023-05-10T19:10:20.113Z,4.18
2023-05-10T19:13:22.108Z,5.53
2023-05-10T19:16:24.338Z,6.15
2023-05-10T19:19:26.541Z,3.72
2023-05-10T19:22:44.873Z,5.30
2023-05-10T19:25:51.050Z,3.35
2023-05-10T19:28:53.034Z,3.83
2023-05-10T19:31:55.035Z,4.18
2023-05-10T19:34:56.930Z,4.20
2023-05-10T19:37:58.755Z,3.63
2023-05-10T19:41:00.751Z,5.07
2023-05-10T19:44:02.623Z,4.57
2023-05-10T19:47:08.235Z,4.40
2023-05-10T19:50:10.665Z,5.05
2023-05-10T19:53:12.581Z,6.90
2023-05-10T19:56:14.538Z,4.13
2023-05-10T19:59:16.310Z,4.80
2023-05-10T20:02:18.429Z,4.95
2023-05-10T20:05:20.244Z,3.60
2023-05-10T20:08:21.991Z,4.93
2023-05-10T20:11:23.853Z,3.72
2023-05-10T20:14:25.759Z,6.28
2023-05-10T20:17:27.684Z,4.40
2023-05-10T20:20:29.936Z,4.18
2023-05-10T20:23:31.780Z,5.40
2023-05-10T20:26:34.105Z,3.88
2023-05-10T20:29:39.406Z,3.70
2023-05-10T20:32:41.880Z,6.63
2023-05-10T20:35:43.762Z,4.00
2023-05-10T20:38:45.668Z,4.00
2023-05-10T20:41:47.655Z,4.78
2023-05-10T20:44:50.025Z,4.72
2023-05-10T20:47:55.557Z,5.13
2023-05-10T20:50:57.462Z,5.45
2023-05-10T20:54:01.777Z,4.40
2023-05-10T20:57:03.780Z,4.40
2023-05-10T21:00:06.168Z,5.65
2023-05-10T21:03:08.107Z,4.22
2023-05-10T21:06:09.983Z,5.13
2023-05-10T21:09:11.945Z,3.80
2023-05-10T21:12:13.763Z,6.07
2023-05-10T21:15:15.578Z,4.53
2023-05-10T21:18:17.432Z,4.78
2023-05-10T21:21:19.302Z,4.38
2023-05-10T21:24:21.108Z,4.73
2023-05-10T21:27:23.005Z,4.65
2023-05-10T21:30:25.009Z,4.45
2023-05-10T21:33:27.117Z,5.55
2023-05-10T21:36:29.014Z,5.88
2023-05-10T21:39:31.000Z,4.50
2023-05-10T21:42:32.934Z,4.60
2023-05-10T21:45:40.789Z,4.93
2023-05-10T21:48:42.623Z,5.20
2023-05-10T21:51:44.529Z,7.80
2023-05-10T21:54:46.458Z,5.17
2023-05-10T21:57:50.883Z,7.13
2023-05-10T22:00:52.740Z,5.22
2023-05-10T22:03:54.647Z,4.97
2023-05-10T22:06:56.549Z,5.57
2023-05-10T22:09:58.965Z,5.47
2023-05-10T22:13:01.103Z,5.20
2023-05-10T22:16:03.026Z,4.95
2023-05-10T22:19:05.223Z,7.72
2023-05-10T22:22:07.208Z,6.28
2023-05-10T22:25:09.187Z,4.70
2023-05-10T22:28:11.155Z,5.40
2023-05-10T22:31:16.753Z,5.47
2023-05-10T22:34:18.990Z,5.38
2023-05-10T22:37:20.965Z,4.93
2023-05-10T22:40:23.019Z,4.90
2023-05-10T22:43:24.930Z,5.15
2023-05-10T22:46:30.817Z,5.68
2023-05-10T22:49:33.900Z,5.32
2023-05-10T22:52:38.941Z,5.95
2023-05-10T22:55:40.926Z,6.53
2023-05-10T22:58:42.893Z,5.72
2023-05-10T23:01:44.774Z,5.07
2023-05-10T23:04:50.365Z,5.80
2023-05-10T23:07:53.808Z,4.43
2023-05-10T23:10:55.783Z,5.03
2023-05-10T23:13:57.713Z,6.05
2023-05-10T23:17:02.735Z,4.97
2023-05-10T23:20:04.934Z,6.88
2023-05-10T23:23:07.299Z,6.20
2023-05-10T23:26:09.695Z,6.43
2023-05-10T23:29:11.610Z,5.95
2023-05-10T23:32:16.512Z,7.43
2023-05-10T23:35:18.443Z,8.32
2023-05-10T23:38:20.430Z,6.18
2023-05-10T23:41:22.294Z,5.00
2023-05-10T23:44:24.656Z,6.28
2023-05-10T23:47:26.991Z,6.50
2023-05-10T23:50:28.984Z,5.97
2023-05-10T23:53:30.866Z,6.15
2023-05-10T23:56:33.281Z,6.47
2023-05-10T23:59:35.376Z,7.28
